createdAt,value
2023-03-26T00:01:05.695Z,99854.97
2023-03-26T00:03:33.908Z,99850.72
2023-03-26T00:06:06.171Z,99848.34
2023-03-26T00:08:33.473Z,99851.41
2023-03-26T00:11:01.215Z,99853.50
2023-03-26T00:13:28.202Z,99851.22
2023-03-26T00:15:55.178Z,99840.06
2023-03-26T00:18:24.815Z,99853.97
2023-03-26T00:20:52.008Z,99848.28
2023-03-26T00:23:18.599Z,99858.41
2023-03-26T00:25:46.076Z,99850.78
2023-03-26T00:28:13.494Z,99857.38
2023-03-26T00:30:42.041Z,99867.50
2023-03-26T00:33:11.807Z,99861.28
2023-03-26T00:35:38.862Z,99853.66
2023-03-26T00:38:05.417Z,99848.28
2023-03-26T00:40:32.168Z,99852.06
2023-03-26T00:42:58.736Z,99848.81
2023-03-26T00:45:25.324Z,99842.63
2023-03-26T00:47:51.909Z,99837.63
2023-03-26T00:50:19.857Z,99832.56
2023-03-26T00:52:46.517Z,99828.19
2023-03-26T00:55:13.426Z,99822.22
2023-03-26T00:57:40.672Z,99817.13
2023-03-26T01:00:11.100Z,99813.47
2023-03-26T01:02:38.090Z,99816.88
2023-03-26T01:05:53.313Z,99811.38
2023-03-26T01:08:33.354Z,99811.25
2023-03-26T01:11:07.046Z,99810.28
2023-03-26T01:13:38.508Z,99817.59
2023-03-26T01:16:11.422Z,99815.63
2023-03-26T01:18:41.132Z,99827.31
2023-03-26T01:21:09.769Z,99819.28
2023-03-26T01:23:51.970Z,99813.34
2023-03-26T01:26:40.636Z,99817.97
2023-03-26T01:29:18.768Z,99822.50
2023-03-26T01:31:56.809Z,99819.81
2023-03-26T01:34:52.321Z,99825.88
2023-03-26T01:37:40.508Z,99826.75
2023-03-26T01:40:31.746Z,99830.25
2023-03-26T01:43:13.616Z,99829.28
2023-03-26T01:45:42.668Z,99830.13
2023-03-26T01:48:09.516Z,99828.31
2023-03-26T01:50:36.243Z,99828.19
2023-03-26T01:53:03.505Z,99820.28
2023-03-26T01:55:53.846Z,99830.00
2023-03-26T01:58:25.336Z,99831.81
2023-03-26T02:01:12.783Z,99831.97
2023-03-26T02:04:15.698Z,99838.28
2023-03-26T02:06:51.544Z,99847.19
2023-03-26T02:09:25.444Z,99842.69
2023-03-26T02:11:52.174Z,99851.81
2023-03-26T02:14:18.828Z,99845.72
2023-03-26T02:16:46.937Z,99851.94
2023-03-26T02:19:21.756Z,99855.59
2023-03-26T02:21:51.383Z,99852.19
2023-03-26T02:24:19.649Z,99847.94
2023-03-26T02:26:46.638Z,99853.44
2023-03-26T02:29:14.449Z,99843.97
2023-03-26T02:34:07.587Z,99845.34
2023-03-26T02:36:35.929Z,99841.44
2023-03-26T02:39:03.527Z,99843.06
2023-03-26T02:41:30.101Z,99831.28
2023-03-26T02:43:56.664Z,99831.91
2023-03-26T02:46:23.315Z,99830.38
2023-03-26T02:48:49.943Z,99825.50
2023-03-26T02:51:18.206Z,99826.00
2023-03-26T02:53:44.943Z,99817.53
2023-03-26T02:56:12.621Z,99810.72
2023-03-26T02:58:39.229Z,99822.75
2023-03-26T03:01:05.920Z,99815.97
2023-03-26T03:03:32.578Z,99821.81
2023-03-26T03:05:59.364Z,99825.69
2023-03-26T03:08:28.274Z,99820.47
2023-03-26T03:11:12.902Z,99822.41
2023-03-26T03:13:42.177Z,99812.81
2023-03-26T03:16:09.230Z,99814.78
2023-03-26T03:18:36.502Z,99819.38
2023-03-26T03:21:04.461Z,99822.06
2023-03-26T03:23:31.335Z,99820.47
2023-03-26T03:25:58.925Z,99826.91
2023-03-26T03:28:26.659Z,99817.31
2023-03-26T03:30:57.647Z,99822.53
2023-03-26T03:33:24.390Z,99819.75
2023-03-26T03:35:51.349Z,99822.53
2023-03-26T03:38:17.997Z,99820.72
2023-03-26T03:40:45.444Z,99811.84
2023-03-26T03:43:12.141Z,99817.47
2023-03-26T03:45:38.723Z,99828.25
2023-03-26T03:48:05.531Z,99832.84
2023-03-26T03:50:34.405Z,99833.94
2023-03-26T03:53:02.959Z,99844.00
2023-03-26T03:55:30.072Z,99852.16
2023-03-26T03:57:58.365Z,99850.44
2023-03-26T04:00:25.056Z,99850.44
2023-03-26T04:02:54.499Z,99849.72
2023-03-26T04:05:21.631Z,99849.09
2023-03-26T04:07:48.299Z,99855.66
2023-03-26T04:10:16.184Z,99854.94
2023-03-26T04:12:42.755Z,99850.91
2023-03-26T04:15:09.730Z,99851.28
2023-03-26T04:17:42.438Z,99848.72
2023-03-26T04:20:15.659Z,99855.50
2023-03-26T04:22:43.974Z,99852.69
2023-03-26T04:25:11.883Z,99839.09
2023-03-26T04:27:41.649Z,99843.19
2023-03-26T04:30:12.635Z,99842.56
2023-03-26T04:32:40.454Z,99840.97
2023-03-26T04:35:07.552Z,99845.59
2023-03-26T04:37:40.123Z,99850.22
2023-03-26T04:40:15.396Z,99849.59
2023-03-26T04:42:45.958Z,99849.69
2023-03-26T04:45:15.390Z,99854.28
2023-03-26T04:47:42.126Z,99857.09
2023-03-26T04:50:10.316Z,99854.44
2023-03-26T04:52:38.074Z,99851.63
2023-03-26T04:55:13.819Z,99852.25
2023-03-26T04:57:46.267Z,99857.47
2023-03-26T05:00:16.639Z,99858.94
2023-03-26T05:02:43.631Z,99857.97
2023-03-26T05:05:10.686Z,99855.09
2023-03-26T05:07:37.746Z,99851.06
2023-03-26T05:10:06.391Z,99843.56
2023-03-26T05:12:33.072Z,99845.06
2023-03-26T05:14:59.626Z,99846.28
2023-03-26T05:17:26.721Z,99845.78
2023-03-26T05:19:53.262Z,99846.03
2023-03-26T05:22:19.821Z,99848.97
2023-03-26T05:24:46.400Z,99844.75
2023-03-26T05:27:17.306Z,99845.09
2023-03-26T05:29:43.922Z,99846.22
2023-03-26T05:32:10.995Z,99843.91
2023-03-26T05:34:39.957Z,99838.19
2023-03-26T05:37:07.529Z,99835.91
2023-03-26T05:39:35.550Z,99839.88
2023-03-26T05:42:02.627Z,99843.91
2023-03-26T05:44:29.316Z,99850.56
2023-03-26T05:46:55.901Z,99852.03
2023-03-26T05:49:22.494Z,99845.59
2023-03-26T05:51:49.104Z,99845.22
2023-03-26T05:54:15.642Z,99844.00
2023-03-26T05:56:42.283Z,99843.75
2023-03-26T05:59:09.181Z,99850.53
2023-03-26T06:01:35.795Z,99845.06
2023-03-26T06:04:02.447Z,99847.63
2023-03-26T06:06:29.617Z,99843.75
2023-03-26T06:09:02.194Z,99850.41
2023-03-26T06:11:31.121Z,99839.06
2023-03-26T06:13:58.184Z,99841.25
2023-03-26T06:16:27.368Z,99841.59
2023-03-26T06:18:56.745Z,99831.09
2023-03-26T06:21:25.612Z,99820.56
2023-03-26T06:23:52.751Z,99829.66
2023-03-26T06:26:19.782Z,99842.88
2023-03-26T06:28:46.580Z,99829.53
2023-03-26T06:31:13.359Z,99823.41
2023-03-26T06:33:40.017Z,99834.06
2023-03-26T06:36:06.899Z,99832.13
2023-03-26T06:38:33.644Z,99830.25
2023-03-26T06:41:06.190Z,99836.78
2023-03-26T06:43:33.961Z,99836.44
2023-03-26T06:46:04.445Z,99831.25
2023-03-26T06:48:31.736Z,99835.41
2023-03-26T06:50:58.418Z,99835.19
2023-03-26T06:53:25.024Z,99830.38
2023-03-26T06:55:53.753Z,99823.63
2023-03-26T06:58:21.501Z,99826.59
2023-03-26T07:00:48.122Z,99829.97
2023-03-26T07:03:17.177Z,99824.97
2023-03-26T07:05:43.825Z,99834.97
2023-03-26T07:08:10.415Z,99834.75
2023-03-26T07:10:37.027Z,99826.88
2023-03-26T07:13:03.704Z,99833.47
2023-03-26T07:15:30.362Z,99834.16
2023-03-26T07:17:56.941Z,99839.00
2023-03-26T07:20:24.156Z,99849.28
2023-03-26T07:22:51.556Z,99843.28
2023-03-26T07:25:19.109Z,99845.50
2023-03-26T07:27:57.997Z,99837.44
2023-03-26T07:30:42.052Z,99858.84
2023-03-26T07:33:24.073Z,99851.50
2023-03-26T07:36:03.305Z,99850.88
2023-03-26T07:38:29.793Z,99856.25
2023-03-26T07:41:25.564Z,99847.81
2023-03-26T07:44:29.195Z,99846.44
2023-03-26T07:46:56.023Z,99847.97
2023-03-26T07:49:22.873Z,99842.56
2023-03-26T07:51:49.715Z,99847.34
2023-03-26T07:54:16.571Z,99843.25
2023-03-26T07:56:55.822Z,99846.66
2023-03-26T07:59:42.907Z,99848.88
2023-03-26T08:02:28.907Z,99843.78
2023-03-26T08:05:18.886Z,99853.72
2023-03-26T08:08:20.742Z,99849.88
2023-03-26T08:11:05.178Z,99841.47
2023-03-26T08:14:01.146Z,99834.75
2023-03-26T08:16:36.809Z,99837.69
2023-03-26T08:19:10.882Z,99834.19
2023-03-26T08:22:26.255Z,99831.72
2023-03-26T08:25:16.723Z,99829.22
2023-03-26T08:27:52.362Z,99829.41
2023-03-26T08:30:24.425Z,99830.13
2023-03-26T08:33:13.485Z,99822.22
2023-03-26T08:35:43.325Z,99817.44
2023-03-26T08:38:13.346Z,99819.00
2023-03-26T08:41:10.606Z,99806.56
2023-03-26T08:43:56.380Z,99811.97
2023-03-26T08:46:35.074Z,99803.75
2023-03-26T08:49:39.105Z,99809.84
2023-03-26T08:52:42.590Z,99799.94
2023-03-26T08:55:27.501Z,99802.16
2023-03-26T08:57:56.949Z,99803.19
2023-03-26T09:00:40.941Z,99798.97
2023-03-26T09:03:25.747Z,99806.72
2023-03-26T09:06:16.955Z,99800.47
2023-03-26T09:09:09.655Z,99804.34
2023-03-26T09:12:13.200Z,99791.25
2023-03-26T09:14:56.864Z,99794.44
2023-03-26T09:17:57.855Z,99784.94
2023-03-26T09:20:42.709Z,99782.09
2023-03-26T09:23:28.363Z,99783.44
2023-03-26T09:26:22.945Z,99775.38
2023-03-26T09:29:27.114Z,99769.81
2023-03-26T09:32:05.815Z,99775.06
2023-03-26T09:34:41.511Z,99767.38
2023-03-26T09:37:18.836Z,99771.50
2023-03-26T09:40:15.247Z,99764.59
2023-03-26T09:42:53.797Z,99765.06
2023-03-26T09:45:41.719Z,99757.22
2023-03-26T09:48:30.838Z,99748.44
2023-03-26T09:51:12.732Z,99740.81
2023-03-26T09:54:14.592Z,99729.31
2023-03-26T09:57:11.156Z,99728.38
2023-03-26T09:59:59.288Z,99725.94
2023-03-26T10:02:57.638Z,99713.72
2023-03-26T10:05:39.141Z,99708.75
2023-03-26T10:08:16.860Z,99709.03
2023-03-26T10:10:51.730Z,99709.94
2023-03-26T10:13:33.618Z,99712.34
2023-03-26T10:16:03.024Z,99718.22
2023-03-26T10:18:40.448Z,99718.72
2023-03-26T10:21:26.748Z,99724.03
2023-03-26T10:24:00.466Z,99741.63
2023-03-26T10:27:10.386Z,99778.06
2023-03-26T10:29:44.175Z,99775.50
2023-03-26T10:32:29.577Z,99754.38
2023-03-26T10:35:06.437Z,99746.13
2023-03-26T10:38:03.923Z,99734.25
2023-03-26T10:40:43.244Z,99724.28
2023-03-26T10:43:54.853Z,99706.75
2023-03-26T10:46:31.675Z,99687.31
2023-03-26T10:49:30.394Z,99688.72
2023-03-26T10:52:22.061Z,99679.78
2023-03-26T10:54:56.668Z,99668.38
2023-03-26T10:57:23.192Z,99676.81
2023-03-26T10:59:50.811Z,99667.66
2023-03-26T11:02:30.402Z,99665.69
2023-03-26T11:04:57.401Z,99652.41
2023-03-26T11:07:50.746Z,99653.31
2023-03-26T11:10:30.482Z,99649.19
2023-03-26T11:13:11.509Z,99644.00
2023-03-26T11:15:54.494Z,99634.84
2023-03-26T11:18:41.382Z,99629.41
2023-03-26T11:21:20.846Z,99622.78
2023-03-26T11:24:29.800Z,99606.53
2023-03-26T11:27:15.489Z,99604.66
2023-03-26T11:30:01.262Z,99604.47
2023-03-26T11:32:51.727Z,99596.84
2023-03-26T11:35:41.081Z,99593.88
2023-03-26T11:38:32.921Z,99585.69
2023-03-26T11:41:02.000Z,99569.94
2023-03-26T11:43:35.021Z,99576.69
2023-03-26T11:46:04.331Z,99570.63
2023-03-26T11:48:40.566Z,99566.75
2023-03-26T11:51:17.548Z,99560.00
2023-03-26T11:53:47.433Z,99541.97
2023-03-26T11:56:24.842Z,99536.19
2023-03-26T11:59:05.465Z,99529.38
2023-03-26T12:01:51.930Z,99526.03
2023-03-26T12:04:35.422Z,99518.09
2023-03-26T12:07:39.566Z,99515.22
2023-03-26T12:10:20.519Z,99506.25
2023-03-26T12:12:48.225Z,99499.25
2023-03-26T12:15:20.497Z,99488.97
2023-03-26T12:17:56.428Z,99494.66
2023-03-26T12:20:25.802Z,99490.28
2023-03-26T12:23:00.015Z,99477.38
2023-03-26T12:25:27.616Z,99471.41
2023-03-26T12:28:02.601Z,99458.16
2023-03-26T12:30:33.814Z,99460.81
2023-03-26T12:33:03.700Z,99461.00
2023-03-26T12:35:34.284Z,99454.13
2023-03-26T12:38:16.049Z,99449.00
2023-03-26T12:40:43.335Z,99437.63
2023-03-26T12:44:46.085Z,99426.19
2023-03-26T12:47:56.075Z,99420.41
2023-03-26T12:49:24.657Z,99433.53
2023-03-26T12:51:58.054Z,99430.09
2023-03-26T12:54:28.848Z,99432.88
2023-03-26T12:57:12.132Z,99430.13
2023-03-26T12:59:42.612Z,99427.19
2023-03-26T13:02:51.366Z,99427.56
2023-03-26T13:05:29.714Z,99431.63
2023-03-26T13:08:17.943Z,99421.97
2023-03-26T13:10:50.695Z,99406.91
2023-03-26T13:13:37.469Z,99394.31
2023-03-26T13:16:21.755Z,99396.28
2023-03-26T13:18:59.459Z,99377.06
2023-03-26T13:21:34.989Z,99396.47
2023-03-26T13:24:01.704Z,99380.91
2023-03-26T13:26:40.436Z,99362.75
2023-03-26T13:29:28.581Z,99376.44
2023-03-26T13:32:29.828Z,99360.38
2023-03-26T13:35:21.369Z,99362.09
2023-03-26T13:38:10.984Z,99352.38
2023-03-26T13:40:46.681Z,99352.53
2023-03-26T13:43:13.172Z,99346.78
2023-03-26T13:46:04.278Z,99345.81
2023-03-26T13:48:56.107Z,99349.88
2023-03-26T13:51:36.167Z,99352.84
2023-03-26T13:54:16.319Z,99335.91
2023-03-26T13:57:08.159Z,99325.84
2023-03-26T13:59:43.939Z,99323.94
2023-03-26T14:02:18.240Z,99318.91
2023-03-26T14:04:49.533Z,99307.72
2023-03-26T14:07:27.991Z,99300.25
2023-03-26T14:10:01.239Z,99294.63
2023-03-26T14:12:53.796Z,99277.59
2023-03-26T14:15:45.936Z,99286.50
2023-03-26T14:18:37.500Z,99299.41
2023-03-26T14:21:13.103Z,99277.94
2023-03-26T14:23:58.999Z,99296.50
2023-03-26T14:27:03.877Z,99290.91
2023-03-26T14:29:56.557Z,99274.59
2023-03-26T14:32:40.755Z,99265.00
2023-03-26T14:35:37.756Z,99283.34
2023-03-26T14:38:48.834Z,99270.69
2023-03-26T14:41:53.682Z,99263.00
2023-03-26T14:44:48.048Z,99281.13
2023-03-26T14:47:19.376Z,99258.66
2023-03-26T14:50:10.602Z,99267.00
2023-03-26T14:52:48.867Z,99285.47
2023-03-26T14:55:53.498Z,99245.44
2023-03-26T14:58:33.984Z,99245.94
2023-03-26T15:01:21.710Z,99234.47
2023-03-26T15:04:26.012Z,99219.50
2023-03-26T15:07:04.882Z,99218.13
2023-03-26T15:10:08.858Z,99206.56
2023-03-26T15:12:47.343Z,99215.56
2023-03-26T15:15:13.897Z,99211.88
2023-03-26T15:18:17.786Z,99204.13
2023-03-26T15:20:50.008Z,99202.00
2023-03-26T15:23:31.732Z,99202.81
2023-03-26T15:26:11.198Z,99202.81
2023-03-26T15:29:04.040Z,99188.31
2023-03-26T15:31:36.945Z,99181.97
2023-03-26T15:34:56.054Z,99176.63
2023-03-26T15:37:58.837Z,99174.59
2023-03-26T15:40:43.444Z,99191.84
2023-03-26T15:43:14.154Z,99185.09
2023-03-26T15:45:53.852Z,99193.88
2023-03-26T15:48:30.131Z,99178.28
2023-03-26T15:51:47.491Z,99185.03
2023-03-26T15:54:29.527Z,99178.34
2023-03-26T15:57:22.000Z,99176.00
2023-03-26T16:00:01.372Z,99173.09
2023-03-26T16:02:44.126Z,99162.78
2023-03-26T16:05:22.710Z,99163.97
2023-03-26T16:08:38.785Z,99158.81
2023-03-26T16:11:09.349Z,99149.75
2023-03-26T16:13:37.812Z,99137.78
2023-03-26T16:16:04.473Z,99140.22
2023-03-26T16:18:31.200Z,99137.59
2023-03-26T16:21:31.825Z,99135.41
2023-03-26T16:24:02.134Z,99130.06
2023-03-26T16:26:31.781Z,99112.53
2023-03-26T16:29:14.302Z,99110.22
2023-03-26T16:31:59.857Z,99115.22
2023-03-26T16:35:03.386Z,99112.53
2023-03-26T16:37:36.331Z,99102.69
2023-03-26T16:40:27.737Z,99113.94
2023-03-26T16:43:19.690Z,99121.22
2023-03-26T16:46:02.503Z,99111.38
2023-03-26T16:48:46.041Z,99122.63
2023-03-26T16:51:40.027Z,99114.44
2023-03-26T16:54:29.343Z,99121.91
2023-03-26T16:57:24.939Z,99122.28
2023-03-26T17:00:07.561Z,99115.78
2023-03-26T17:02:42.939Z,99119.47
2023-03-26T17:05:34.267Z,99119.03
2023-03-26T17:08:42.567Z,99118.75
2023-03-26T17:11:56.596Z,99116.22
2023-03-26T17:14:38.010Z,99119.91
2023-03-26T17:17:18.186Z,99112.75
2023-03-26T17:20:11.647Z,99117.75
2023-03-26T17:23:02.570Z,99119.34
2023-03-26T17:25:31.913Z,99117.25
2023-03-26T17:28:19.825Z,99118.88
2023-03-26T17:31:26.374Z,99121.34
2023-03-26T17:33:53.741Z,99116.53
2023-03-26T17:36:28.103Z,99120.44
2023-03-26T17:39:00.821Z,99118.28
2023-03-26T17:42:10.480Z,99113.00
2023-03-26T17:44:50.011Z,99115.72
2023-03-26T17:47:23.957Z,99114.88
2023-03-26T17:49:58.358Z,99109.41
2023-03-26T17:52:33.961Z,99108.50
2023-03-26T17:55:02.036Z,99104.53
2023-03-26T17:57:57.728Z,99115.72
2023-03-26T18:00:31.608Z,99106.31
2023-03-26T18:03:06.709Z,99099.63
2023-03-26T18:05:38.002Z,99102.72
2023-03-26T18:08:19.893Z,99112.91
2023-03-26T18:10:55.372Z,99108.72
2023-03-26T18:13:59.546Z,99103.03
2023-03-26T18:16:45.777Z,99101.09
2023-03-26T18:19:25.008Z,99108.75
2023-03-26T18:21:54.056Z,99104.56
2023-03-26T18:24:31.487Z,99103.72
2023-03-26T18:27:21.827Z,99103.72
2023-03-26T18:29:57.217Z,99104.13
2023-03-26T18:32:33.507Z,99105.16
2023-03-26T18:35:21.990Z,99097.41
2023-03-26T18:37:51.976Z,99098.44
2023-03-26T18:40:21.428Z,99087.75
2023-03-26T18:42:55.727Z,99081.66
2023-03-26T18:45:37.412Z,99080.19
2023-03-26T18:48:11.338Z,99073.41
2023-03-26T18:50:41.819Z,99070.56
2023-03-26T18:53:20.145Z,99064.22
2023-03-26T18:55:47.948Z,99060.50
2023-03-26T18:58:34.448Z,99054.06
2023-03-26T19:01:04.562Z,99052.41
2023-03-26T19:03:38.348Z,99058.34
2023-03-26T19:06:10.189Z,99047.25
2023-03-26T19:08:39.277Z,99046.81
2023-03-26T19:11:08.323Z,99040.94
2023-03-26T19:13:36.475Z,99040.56
2023-03-26T19:16:09.121Z,99027.72
2023-03-26T19:18:37.776Z,99033.28
2023-03-26T19:21:10.626Z,99037.66
2023-03-26T19:23:41.115Z,99030.31
2023-03-26T19:26:10.472Z,99029.66
2023-03-26T19:28:41.831Z,99024.28
2023-03-26T19:31:36.118Z,99014.94
2023-03-26T19:34:11.905Z,99016.91
2023-03-26T19:36:52.177Z,99018.41
2023-03-26T19:39:36.491Z,99002.19
2023-03-26T19:42:06.416Z,98997.63
2023-03-26T19:44:33.503Z,98991.13
2023-03-26T19:47:15.004Z,98984.03
2023-03-26T19:49:56.500Z,98975.84
2023-03-26T19:52:28.016Z,98971.19
2023-03-26T19:55:15.330Z,98965.19
2023-03-26T19:57:43.146Z,98967.44
2023-03-26T20:00:13.721Z,98964.09
2023-03-26T20:02:42.356Z,98957.75
2023-03-26T20:05:19.053Z,98956.78
2023-03-26T20:07:47.928Z,98947.22
2023-03-26T20:10:14.569Z,98939.31
2023-03-26T20:12:41.153Z,98932.03
2023-03-26T20:15:20.190Z,98924.69
2023-03-26T20:17:50.014Z,98918.78
2023-03-26T20:20:17.483Z,98911.72
2023-03-26T20:22:47.019Z,98905.41
2023-03-26T20:27:53.077Z,98893.56
2023-03-26T20:30:36.393Z,98890.19
2023-03-26T20:33:13.304Z,98889.53
2023-03-26T20:35:41.280Z,98889.41
2023-03-26T20:38:09.721Z,98876.16
2023-03-26T20:40:37.164Z,98877.34
2023-03-26T20:43:03.778Z,98884.97
2023-03-26T20:45:30.380Z,98878.88
2023-03-26T20:47:57.512Z,98881.25
2023-03-26T20:50:24.480Z,98873.56
2023-03-26T20:52:51.163Z,98877.47
2023-03-26T20:55:21.715Z,98876.03
2023-03-26T20:57:48.948Z,98877.38
2023-03-26T21:00:23.000Z,98873.72
2023-03-26T21:02:54.142Z,98865.63
2023-03-26T21:05:26.974Z,98861.59
2023-03-26T21:07:55.803Z,98865.13
2023-03-26T21:10:25.996Z,98862.09
2023-03-26T21:13:21.687Z,98855.19
2023-03-26T21:15:49.029Z,98865.31
2023-03-26T21:18:15.823Z,98858.25
2023-03-26T21:20:51.705Z,98869.69
2023-03-26T21:23:30.232Z,98874.69
2023-03-26T21:26:02.720Z,98882.59
2023-03-26T21:28:39.808Z,98889.66
2023-03-26T21:31:15.482Z,98892.84
2023-03-26T21:33:42.584Z,98893.22
2023-03-26T21:36:10.828Z,98900.09
2023-03-26T21:38:37.923Z,98902.06
2023-03-26T21:41:05.107Z,98898.38
2023-03-26T21:43:31.963Z,98893.44
2023-03-26T21:45:58.915Z,98904.91
2023-03-26T21:48:26.001Z,98901.38
2023-03-26T21:50:53.067Z,98911.28
2023-03-26T21:53:20.098Z,98906.91
2023-03-26T21:56:17.657Z,98898.91
2023-03-26T21:59:10.488Z,98895.25
2023-03-26T22:01:57.356Z,98892.25
2023-03-26T22:04:46.194Z,98895.13
2023-03-26T22:07:51.516Z,98891.56
2023-03-26T22:10:18.608Z,98888.41
2023-03-26T22:12:45.239Z,98887.09
2023-03-26T22:15:13.892Z,98887.59
2023-03-26T22:17:42.027Z,98888.63
2023-03-26T22:20:12.982Z,98886.78
2023-03-26T22:22:48.956Z,98891.50
2023-03-26T22:25:19.724Z,98885.63
2023-03-26T22:27:47.818Z,98875.03
2023-03-26T22:30:15.666Z,98886.16
2023-03-26T22:32:43.619Z,98877.13
2023-03-26T22:35:10.466Z,98878.81
2023-03-26T22:37:37.365Z,98878.16
2023-03-26T22:40:08.376Z,98871.44
2023-03-26T22:42:36.239Z,98861.56
2023-03-26T22:45:03.149Z,98856.53
2023-03-26T22:47:30.736Z,98849.16
2023-03-26T22:49:57.436Z,98855.69
2023-03-26T22:52:24.055Z,98849.81
2023-03-26T22:54:50.647Z,98844.13
2023-03-26T22:57:17.278Z,98840.56
2023-03-26T22:59:43.874Z,98840.78
2023-03-26T23:02:12.321Z,98833.75
2023-03-26T23:04:39.111Z,98833.41
2023-03-26T23:07:06.020Z,98825.88
2023-03-26T23:09:32.665Z,98828.06
2023-03-26T23:11:59.348Z,98820.69
2023-03-26T23:14:26.336Z,98815.31
2023-03-26T23:16:52.907Z,98820.06
2023-03-26T23:19:19.556Z,98822.09
2023-03-26T23:21:46.354Z,98829.50
2023-03-26T23:24:13.161Z,98816.91
2023-03-26T23:26:49.704Z,98815.72
2023-03-26T23:29:17.514Z,98819.59
2023-03-26T23:31:44.196Z,98815.41
2023-03-26T23:34:13.450Z,98799.44
2023-03-26T23:36:40.879Z,98792.72
2023-03-26T23:39:08.416Z,98794.06
2023-03-26T23:41:35.169Z,98785.63
2023-03-26T23:44:01.774Z,98781.94
2023-03-26T23:46:34.676Z,98771.53
2023-03-26T23:49:03.470Z,98760.13
2023-03-26T23:51:30.912Z,98754.59
2023-03-26T23:53:57.845Z,98756.44
2023-03-26T23:56:24.754Z,98753.41
2023-03-26T23:58:51.347Z,98754.44
